Time;durP1;ratioP1;P1;durP2;ratioP2;P2;SDS_P1;SDS_P2;PMS_P1;PMS_P2;Temp;Humidity;BMP_temperature;BMP_pressure;BME280_temperature;BME280_humidity;BME280_pressure;Samples;Min_cycle;Max_cycle;Signal;HPM_P1;HPM_P2
2022/05/15 00:00:43;;;;;;;;;4.00;4.00;;;;;;;;5050148;28;45788;-71
2022/05/15 00:03:16;;;;;;;;;5.00;5.00;;;;;;;;5052521;28;45289;-71
2022/05/15 00:05:42;;;;;;;;;5.00;5.00;;;;;;;;5061331;28;45295;-71
2022/05/15 00:08:09;;;;;;;;;6.33;5.00;;;;;;;;5050907;28;45310;-71
2022/05/15 00:10:35;;;;;;;;;6.00;6.00;;;;;;;;5059855;28;47531;-71
2022/05/15 00:13:00;;;;;;;;;4.33;4.33;;;;;;;;5054650;28;45275;-71
2022/05/15 00:15:25;;;;;;;;;3.67;3.67;;;;;;;;5061874;28;45307;-71
2022/05/15 00:17:51;;;;;;;;;6.00;5.00;;;;;;;;5055560;28;45411;-71
2022/05/15 00:20:16;;;;;;;;;5.67;5.67;;;;;;;;5061181;28;46119;-71
2022/05/15 00:22:42;;;;;;;;;5.67;5.67;;;;;;;;5057341;28;45383;-71
2022/05/15 00:25:07;;;;;;;;;7.67;5.00;;;;;;;;5060037;28;45502;-71
2022/05/15 00:27:32;;;;;;;;;5.00;5.00;;;;;;;;5054820;28;45417;-71
2022/05/15 00:29:58;;;;;;;;;5.00;4.67;;;;;;;;5056620;28;46328;-71
2022/05/15 00:32:23;;;;;;;;;5.33;5.33;;;;;;;;5058234;28;45344;-71
2022/05/15 00:34:48;;;;;;;;;2.33;1.33;;;;;;;;5057432;28;45331;-71
2022/05/15 00:37:13;;;;;;;;;6.33;5.33;;;;;;;;5056653;28;45286;-71
2022/05/15 00:39:39;;;;;;;;;7.67;5.67;;;;;;;;5058536;28;45445;-70
2022/05/15 00:42:08;;;;;;;;;7.67;6.00;;;;;;;;5057778;28;45382;-71
2022/05/15 00:44:33;;;;;;;;;6.67;6.67;;;;;;;;5059822;28;45264;-71
2022/05/15 00:46:58;;;;;;;;;6.00;6.00;;;;;;;;5058174;28;45602;-71
2022/05/15 00:49:23;;;;;;;;;5.00;5.00;;;;;;;;5059194;28;46979;-71
2022/05/15 00:51:51;;;;;;;;;7.00;7.00;;;;;;;;5058938;28;45454;-71
2022/05/15 00:54:20;;;;;;;;;6.67;6.00;;;;;;;;5053243;28;45280;-70
2022/05/15 00:56:48;;;;;;;;;6.00;6.00;;;;;;;;5060160;28;45439;-71
2022/05/15 00:59:15;;;;;;;;;8.33;6.67;;;;;;;;5051728;28;47070;-70
2022/05/15 01:01:41;;;;;;;;;7.67;7.33;;;;;;;;5057819;28;45399;-70
2022/05/15 01:04:07;;;;;;;;;10.33;9.00;;;;;;;;5053734;28;45481;-70
2022/05/15 01:06:33;;;;;;;;;9.00;9.00;;;;;;;;5058034;28;46399;-70
2022/05/15 01:09:00;;;;;;;;;10.33;9.67;;;;;;;;5055643;28;46171;-69
2022/05/15 01:11:25;;;;;;;;;15.33;10.67;;;;;;;;5058742;28;45679;-69
2022/05/15 01:13:52;;;;;;;;;12.67;10.33;;;;;;;;5054848;28;45436;-70
2022/05/15 01:16:19;;;;;;;;;16.67;13.67;;;;;;;;5058060;28;46413;-69
2022/05/15 01:18:47;;;;;;;;;12.33;12.00;;;;;;;;5053071;28;47379;-69
2022/05/15 01:21:18;;;;;;;;;12.00;11.67;;;;;;;;5059934;28;45295;-69
2022/05/15 01:23:43;;;;;;;;;18.67;14.00;;;;;;;;5054363;28;45502;-69
2022/05/15 01:26:08;;;;;;;;;15.33;13.00;;;;;;;;5059944;28;45529;-70
2022/05/15 01:28:33;;;;;;;;;15.67;11.67;;;;;;;;5051977;28;46651;-70
2022/05/15 01:30:59;;;;;;;;;10.00;10.00;;;;;;;;5059773;28;45425;-70
2022/05/15 01:33:24;;;;;;;;;9.33;9.33;;;;;;;;5054499;28;45370;-70
2022/05/15 01:35:49;;;;;;;;;10.00;9.67;;;;;;;;5055463;28;46242;-70
2022/05/15 01:38:16;;;;;;;;;8.00;7.00;;;;;;;;5051994;28;47672;-70
2022/05/15 01:40:42;;;;;;;;;10.67;8.67;;;;;;;;5056076;28;45381;-70
2022/05/15 01:43:07;;;;;;;;;6.00;6.00;;;;;;;;5058183;28;45303;-69
2022/05/15 01:45:32;;;;;;;;;6.00;6.00;;;;;;;;5058077;28;46016;-69
2022/05/15 01:47:58;;;;;;;;;8.00;7.00;;;;;;;;5049956;28;47336;-70
2022/05/15 01:50:23;;;;;;;;;7.00;7.00;;;;;;;;5055040;28;45352;-69
2022/05/15 01:52:49;;;;;;;;;7.00;7.00;;;;;;;;5052555;28;45454;-69
2022/05/15 01:55:14;;;;;;;;;6.67;5.33;;;;;;;;5054718;28;47560;-69
2022/05/15 01:57:40;;;;;;;;;9.33;7.00;;;;;;;;5053416;28;45315;-69
2022/05/15 02:00:07;;;;;;;;;5.33;5.33;;;;;;;;5059467;28;45391;-69
2022/05/15 02:02:32;;;;;;;;;5.67;5.00;;;;;;;;5051629;28;45545;-69
2022/05/15 02:04:57;;;;;;;;;5.67;5.67;;;;;;;;5058050;28;45424;-69
2022/05/15 02:07:22;;;;;;;;;6.00;6.00;;;;;;;;5052892;28;46475;-70
2022/05/15 02:09:48;;;;;;;;;4.67;4.67;;;;;;;;5056398;28;45234;-69
2022/05/15 02:12:13;;;;;;;;;5.00;5.00;;;;;;;;5052792;28;45140;-69
2022/05/15 02:14:38;;;;;;;;;6.00;6.00;;;;;;;;5058114;28;45237;-70
2022/05/15 02:17:04;;;;;;;;;8.00;6.67;;;;;;;;5055763;28;45344;-69
2022/05/15 02:19:29;;;;;;;;;10.00;5.00;;;;;;;;5053531;28;45186;-69
2022/05/15 02:21:54;;;;;;;;;7.00;5.33;;;;;;;;5056788;28;45533;-69
2022/05/15 02:24:19;;;;;;;;;8.00;6.00;;;;;;;;5054875;28;45414;-69
2022/05/15 02:26:45;;;;;;;;;6.00;5.00;;;;;;;;5057260;28;46085;-69
2022/05/15 02:29:10;;;;;;;;;5.33;4.00;;;;;;;;5050209;28;45395;-69
2022/05/15 02:31:35;;;;;;;;;5.00;3.00;;;;;;;;5055812;28;45569;-69
2022/05/15 02:34:00;;;;;;;;;7.00;5.00;;;;;;;;5052132;28;45472;-70
2022/05/15 02:36:26;;;;;;;;;5.00;5.00;;;;;;;;5058052;28;45223;-69
2022/05/15 02:38:51;;;;;;;;;6.67;6.67;;;;;;;;5053891;28;45232;-69
2022/05/15 02:41:16;;;;;;;;;6.33;5.00;;;;;;;;5059391;28;45210;-69
2022/05/15 02:43:42;;;;;;;;;5.00;5.00;;;;;;;;5054557;28;45197;-69
2022/05/15 02:46:07;;;;;;;;;4.33;4.33;;;;;;;;5058770;28;45282;-69
2022/05/15 02:51:16;;;;;;;;;6.00;6.00;;;;;;;;5059274;28;45226;-69
2022/05/15 02:53:43;;;;;;;;;6.00;6.00;;;;;;;;5049117;28;44878;-69
2022/05/15 02:56:10;;;;;;;;;5.33;4.67;;;;;;;;5059507;28;45509;-69
2022/05/15 02:58:35;;;;;;;;;6.00;5.00;;;;;;;;5053250;28;45361;-69
2022/05/15 03:01:00;;;;;;;;;6.67;5.67;;;;;;;;5059121;28;45493;-69
2022/05/15 03:03:26;;;;;;;;;6.33;6.33;;;;;;;;5049908;28;45422;-69
2022/05/15 03:05:52;;;;;;;;;8.00;6.33;;;;;;;;5058501;28;46214;-69
2022/05/15 03:08:17;;;;;;;;;7.00;5.00;;;;;;;;5052144;28;45360;-69
2022/05/15 03:10:42;;;;;;;;;5.00;5.00;;;;;;;;5058813;28;45351;-70
2022/05/15 03:13:07;;;;;;;;;7.33;6.00;;;;;;;;5051906;28;45348;-70
2022/05/15 03:15:33;;;;;;;;;4.67;4.67;;;;;;;;5058469;28;45712;-70
2022/05/15 03:17:58;;;;;;;;;5.00;5.00;;;;;;;;5054501;28;45299;-71
2022/05/15 03:20:27;;;;;;;;;7.00;5.67;;;;;;;;5058724;28;45296;-71
2022/05/15 03:22:52;;;;;;;;;6.00;6.00;;;;;;;;5051780;28;45261;-71
2022/05/15 03:25:18;;;;;;;;;7.00;5.33;;;;;;;;5057476;28;45310;-71
2022/05/15 03:27:43;;;;;;;;;4.33;4.33;;;;;;;;5052188;28;45557;-70
2022/05/15 03:30:08;;;;;;;;;4.00;4.00;;;;;;;;5054289;28;45358;-71
2022/05/15 03:32:34;;;;;;;;;6.00;4.00;;;;;;;;5050074;28;46131;-70
2022/05/15 03:34:59;;;;;;;;;5.67;5.00;;;;;;;;5070453;28;47952;-71
2022/05/15 03:37:24;;;;;;;;;7.67;5.00;;;;;;;;5051424;28;45357;-71
2022/05/15 03:39:49;;;;;;;;;6.33;5.67;;;;;;;;5057489;28;45405;-71
2022/05/15 03:42:15;;;;;;;;;6.33;5.00;;;;;;;;5055605;28;45476;-71
2022/05/15 03:44:40;;;;;;;;;3.67;3.67;;;;;;;;5055456;28;48222;-71
2022/05/15 03:47:06;;;;;;;;;1.00;1.00;;;;;;;;5053836;28;45677;-71
2022/05/15 03:49:31;;;;;;;;;7.67;6.00;;;;;;;;5050011;28;45292;-71
2022/05/15 03:51:56;;;;;;;;;4.00;4.00;;;;;;;;5056336;28;46226;-71
2022/05/15 03:54:21;;;;;;;;;4.00;3.67;;;;;;;;5056850;28;47313;-71
2022/05/15 03:56:49;;;;;;;;;4.00;4.00;;;;;;;;5057048;28;45317;-70
2022/05/15 03:59:16;;;;;;;;;4.33;3.00;;;;;;;;5053895;28;45414;-71
2022/05/15 04:01:41;;;;;;;;;5.33;4.33;;;;;;;;5053888;28;47272;-71
2022/05/15 04:04:07;;;;;;;;;4.00;4.00;;;;;;;;5053152;28;45491;-71
2022/05/15 04:06:32;;;;;;;;;5.00;5.00;;;;;;;;5056089;28;45258;-71
2022/05/15 04:08:58;;;;;;;;;5.00;5.00;;;;;;;;5056609;28;45135;-70
2022/05/15 04:11:23;;;;;;;;;6.00;4.00;;;;;;;;5059409;28;45397;-69
2022/05/15 04:13:48;;;;;;;;;3.33;3.00;;;;;;;;5058468;28;46422;-70
2022/05/15 04:16:13;;;;;;;;;4.00;4.00;;;;;;;;5060598;28;45701;-70
2022/05/15 04:18:39;;;;;;;;;4.00;4.00;;;;;;;;5057750;28;45374;-70
2022/05/15 04:21:05;;;;;;;;;3.67;3.00;;;;;;;;5058876;28;45350;-70
2022/05/15 04:23:30;;;;;;;;;4.00;3.00;;;;;;;;5054265;28;45477;-70
2022/05/15 04:25:55;;;;;;;;;5.67;4.00;;;;;;;;5057581;28;45347;-71
2022/05/15 04:28:20;;;;;;;;;5.33;4.00;;;;;;;;5051845;28;45483;-71
2022/05/15 04:30:46;;;;;;;;;7.00;5.00;;;;;;;;5047595;28;45443;-71
2022/05/15 04:33:11;;;;;;;;;7.00;5.33;;;;;;;;5056508;28;45481;-71
2022/05/15 04:35:36;;;;;;;;;4.00;4.00;;;;;;;;5058891;28;45437;-71
2022/05/15 04:38:01;;;;;;;;;3.00;3.00;;;;;;;;5058372;28;45386;-72
2022/05/15 04:40:26;;;;;;;;;6.33;5.00;;;;;;;;5060164;28;45675;-72
2022/05/15 04:42:52;;;;;;;;;5.00;5.00;;;;;;;;5054684;28;45414;-71
2022/05/15 04:45:17;;;;;;;;;6.00;4.00;;;;;;;;5056422;28;45374;-71
2022/05/15 04:47:43;;;;;;;;;5.00;5.00;;;;;;;;5056149;28;45329;-71
2022/05/15 04:50:08;;;;;;;;;5.00;5.00;;;;;;;;5057382;28;45188;-71
2022/05/15 04:52:34;;;;;;;;;6.33;5.00;;;;;;;;5058114;28;46216;-71
2022/05/15 04:54:59;;;;;;;;;5.67;5.00;;;;;;;;5060625;28;45187;-71
2022/05/15 04:57:24;;;;;;;;;4.33;4.33;;;;;;;;5054900;28;45329;-72
2022/05/15 04:59:49;;;;;;;;;6.33;6.00;;;;;;;;5061036;28;45378;-71
2022/05/15 05:02:14;;;;;;;;;5.00;5.00;;;;;;;;5055417;28;45303;-72
2022/05/15 05:04:40;;;;;;;;;5.00;4.00;;;;;;;;5058307;28;45335;-71
2022/05/15 05:07:05;;;;;;;;;4.00;4.00;;;;;;;;5058619;28;45295;-71
2022/05/15 05:09:30;;;;;;;;;5.00;5.00;;;;;;;;5056357;28;45336;-71
2022/05/15 05:11:55;;;;;;;;;5.67;5.67;;;;;;;;5057620;28;45406;-71
2022/05/15 05:14:21;;;;;;;;;4.67;4.67;;;;;;;;5056276;28;45405;-71
2022/05/15 05:16:46;;;;;;;;;4.00;4.00;;;;;;;;5058173;28;45489;-71
2022/05/15 05:19:11;;;;;;;;;5.33;5.00;;;;;;;;5058470;28;46993;-71
2022/05/15 05:21:36;;;;;;;;;4.33;4.00;;;;;;;;5056636;28;45192;-70
2022/05/15 05:24:02;;;;;;;;;7.67;5.00;;;;;;;;5058328;28;45896;-72
2022/05/15 05:26:27;;;;;;;;;5.33;5.33;;;;;;;;5059354;28;45279;-72
2022/05/15 05:28:54;;;;;;;;;6.67;3.00;;;;;;;;5051652;28;45371;-72
2022/05/15 05:31:19;;;;;;;;;5.00;5.00;;;;;;;;5059727;28;45392;-73
2022/05/15 05:33:44;;;;;;;;;5.33;4.33;;;;;;;;5052469;28;45289;-72
2022/05/15 05:36:11;;;;;;;;;4.33;4.33;;;;;;;;5060054;28;45287;-72
2022/05/15 05:38:36;;;;;;;;;5.00;5.00;;;;;;;;5052913;28;46589;-72
2022/05/15 05:41:01;;;;;;;;;5.00;5.00;;;;;;;;5049026;28;46151;-72
2022/05/15 05:43:26;;;;;;;;;7.67;4.00;;;;;;;;5049284;28;45336;-72
2022/05/15 05:45:52;;;;;;;;;3.00;3.00;;;;;;;;5059946;28;45430;-68
2022/05/15 05:48:17;;;;;;;;;5.00;5.00;;;;;;;;5050205;28;45324;-69
2022/05/15 05:50:42;;;;;;;;;4.33;4.00;;;;;;;;5059148;28;46187;-67
2022/05/15 05:53:09;;;;;;;;;8.00;5.00;;;;;;;;5051846;28;45345;-68
2022/05/15 05:55:35;;;;;;;;;5.00;5.00;;;;;;;;5059186;28;45331;-68
2022/05/15 05:58:00;;;;;;;;;5.67;5.67;;;;;;;;5051377;28;45406;-69
2022/05/15 06:00:27;;;;;;;;;7.00;5.00;;;;;;;;5058784;28;45295;-68
2022/05/15 06:04:38;;;;;;;;;5.00;5.00;;;;;;;;5053197;28;45485;-67
2022/05/15 06:05:37;;;;;;;;;5.00;5.00;;;;;;;;5050647;28;45262;-67
2022/05/15 06:08:03;;;;;;;;;5.00;5.00;;;;;;;;5052175;28;45296;-67
2022/05/15 06:10:28;;;;;;;;;5.33;5.33;;;;;;;;5058133;28;48422;-68
2022/05/15 06:12:53;;;;;;;;;5.67;4.00;;;;;;;;5052852;28;45477;-68
2022/05/15 06:15:18;;;;;;;;;6.00;6.00;;;;;;;;5059550;28;45568;-68
2022/05/15 06:17:44;;;;;;;;;5.33;5.00;;;;;;;;5052698;28;45624;-68
2022/05/15 06:20:09;;;;;;;;;7.00;6.00;;;;;;;;5058990;28;45490;-68
2022/05/15 06:22:34;;;;;;;;;5.00;4.33;;;;;;;;5055935;28;45639;-69
2022/05/15 06:25:00;;;;;;;;;5.67;5.00;;;;;;;;5059090;28;45450;-68
2022/05/15 06:27:25;;;;;;;;;6.00;5.00;;;;;;;;5057160;28;45414;-68
2022/05/15 06:29:51;;;;;;;;;6.33;5.67;;;;;;;;5058417;28;45314;-68
2022/05/15 06:32:16;;;;;;;;;8.67;7.00;;;;;;;;5057104;28;45501;-68
2022/05/15 06:34:41;;;;;;;;;5.67;5.00;;;;;;;;5056848;28;45436;-68
2022/05/15 06:37:06;;;;;;;;;7.00;7.00;;;;;;;;5055292;28;45349;-68
2022/05/15 06:39:31;;;;;;;;;6.33;5.33;;;;;;;;5056437;28;48087;-68
2022/05/15 06:41:59;;;;;;;;;7.00;6.33;;;;;;;;5057101;28;45536;-68
2022/05/15 06:44:24;;;;;;;;;5.33;5.00;;;;;;;;5050062;28;45363;-68
2022/05/15 06:46:49;;;;;;;;;6.33;6.33;;;;;;;;5056718;28;45156;-68
2022/05/15 06:49:15;;;;;;;;;7.33;7.00;;;;;;;;5051106;28;46349;-68
2022/05/15 06:51:40;;;;;;;;;8.00;6.00;;;;;;;;5056807;28;45228;-68
2022/05/15 06:54:06;;;;;;;;;8.00;6.67;;;;;;;;5058552;28;45050;-68
2022/05/15 06:59:15;;;;;;;;;9.00;6.00;;;;;;;;5052859;28;45749;-68
2022/05/15 07:01:40;;;;;;;;;7.00;7.00;;;;;;;;5056936;28;45213;-68
2022/05/15 07:04:05;;;;;;;;;9.33;6.00;;;;;;;;5054469;28;45280;-68
2022/05/15 07:06:31;;;;;;;;;6.67;5.00;;;;;;;;5057561;28;45264;-67
2022/05/15 07:08:56;;;;;;;;;8.00;7.00;;;;;;;;5057567;28;46119;-68
2022/05/15 07:11:22;;;;;;;;;8.67;6.67;;;;;;;;5057491;28;46438;-67
2022/05/15 07:13:47;;;;;;;;;7.33;7.00;;;;;;;;5055840;28;45342;-68
2022/05/15 07:16:12;;;;;;;;;11.00;7.67;;;;;;;;5042151;28;45295;-68
2022/05/15 07:18:38;;;;;;;;;8.67;8.67;;;;;;;;5051704;28;45417;-69
2022/05/15 07:21:03;;;;;;;;;7.00;7.00;;;;;;;;5058495;28;45260;-69
2022/05/15 07:23:29;;;;;;;;;9.00;7.67;;;;;;;;5051303;28;45441;-68
2022/05/15 07:25:54;;;;;;;;;5.67;4.33;;;;;;;;5053619;28;45379;-67
2022/05/15 07:28:20;;;;;;;;;8.33;8.33;;;;;;;;5052801;28;45431;-68
2022/05/15 07:30:45;;;;;;;;;6.67;6.00;;;;;;;;5054419;28;45293;-68
2022/05/15 07:33:10;;;;;;;;;6.00;4.00;;;;;;;;5053915;28;45363;-68
2022/05/15 07:35:35;;;;;;;;;9.33;8.00;;;;;;;;5053067;28;45955;-69
2022/05/15 07:38:01;;;;;;;;;10.67;8.00;;;;;;;;5052532;28;45548;-68
2022/05/15 07:40:26;;;;;;;;;6.67;5.00;;;;;;;;5054924;28;45698;-68
2022/05/15 07:42:51;;;;;;;;;6.33;6.33;;;;;;;;5054284;28;46007;-68
2022/05/15 07:45:17;;;;;;;;;10.00;7.00;;;;;;;;5056592;28;45374;-68
2022/05/15 07:47:43;;;;;;;;;7.00;6.67;;;;;;;;5057368;28;45387;-68
2022/05/15 07:50:08;;;;;;;;;4.00;4.00;;;;;;;;5061037;28;45296;-67
2022/05/15 07:52:34;;;;;;;;;3.00;3.00;;;;;;;;5054044;28;45363;-68
2022/05/15 07:54:59;;;;;;;;;5.00;5.00;;;;;;;;5060533;28;46234;-68
2022/05/15 07:57:24;;;;;;;;;5.00;4.33;;;;;;;;5053408;28;46593;-67
2022/05/15 07:59:50;;;;;;;;;6.00;6.00;;;;;;;;5055522;28;45317;-68
2022/05/15 08:02:16;;;;;;;;;5.00;5.00;;;;;;;;5056424;28;45359;-68
2022/05/15 08:10:11;;;;;;;;;4.00;4.00;;;;;;;;5059488;28;45265;-68
2022/05/15 08:12:36;;;;;;;;;5.00;5.00;;;;;;;;5055282;28;45182;-68
2022/05/15 08:15:02;;;;;;;;;4.75;3.00;;;;;;;;5061421;28;45526;-68
2022/05/15 08:17:27;;;;;;;;;6.50;6.25;;;;;;;;5055437;28;45933;-67
2022/05/15 08:25:20;;;;;;;;;5.75;3.75;;;;;;;;5061298;28;45238;-68
2022/05/15 08:27:46;;;;;;;;;3.50;3.25;;;;;;;;5055467;28;45331;-68
2022/05/15 08:30:11;;;;;;;;;3.50;3.50;;;;;;;;5057437;28;45231;-69
2022/05/15 08:32:37;;;;;;;;;4.00;4.00;;;;;;;;5056330;28;45375;-69
2022/05/15 08:35:02;;;;;;;;;4.50;2.50;;;;;;;;5058500;28;45377;-68
2022/05/15 08:37:27;;;;;;;;;3.00;3.00;;;;;;;;5056491;28;46247;-68
2022/05/15 08:39:53;;;;;;;;;4.00;4.00;;;;;;;;5059527;28;45398;-68
2022/05/15 08:42:37;;;;;;;;;3.00;2.50;;;;;;;;5056664;28;45466;-69
2022/05/15 08:45:03;;;;;;;;;4.25;3.00;;;;;;;;5052640;28;45531;-68
2022/05/15 08:47:45;;;;;;;;;3.00;3.00;;;;;;;;5058035;28;45758;-68
2022/05/15 08:50:12;;;;;;;;;3.00;3.00;;;;;;;;5055453;28;45333;-68
2022/05/15 08:52:42;;;;;;;;;1.75;1.75;;;;;;;;5054890;28;45247;-68
2022/05/15 08:55:31;;;;;;;;;4.25;2.50;;;;;;;;5060625;28;45393;-67
2022/05/15 08:58:00;;;;;;;;;4.75;4.75;;;;;;;;5040094;28;45423;-68
2022/05/15 09:00:46;;;;;;;;;5.00;2.40;;;;;;;;5060618;28;45442;-68
2022/05/15 09:03:17;;;;;;;;;2.25;2.25;;;;;;;;5054425;28;45493;-68
2022/05/15 09:06:01;;;;;;;;;5.00;4.00;;;;;;;;5058881;28;46474;-68
2022/05/15 09:08:45;;;;;;;;;3.60;3.00;;;;;;;;5053691;28;45228;-69
2022/05/15 09:11:12;;;;;;;;;1.80;1.80;;;;;;;;5073302;27;45410;-68
2022/05/15 09:13:39;;;;;;;;;3.40;2.40;;;;;;;;5057367;28;45256;-68
2022/05/15 09:16:09;;;;;;;;;2.20;2.20;;;;;;;;5059906;28;45466;-68
2022/05/15 09:18:37;;;;;;;;;1.40;1.40;;;;;;;;5057469;28;46565;-68
2022/05/15 09:21:02;;;;;;;;;4.20;2.60;;;;;;;;5059978;28;45241;-68
2022/05/15 09:23:37;;;;;;;;;4.00;2.00;;;;;;;;5057810;28;45635;-68
2022/05/15 09:26:22;;;;;;;;;4.00;0.00;;;;;;;;5059117;28;45734;-68
2022/05/15 09:29:00;;;;;;;;;2.20;2.20;;;;;;;;5055203;28;46238;-68
2022/05/15 09:31:27;;;;;;;;;2.00;1.80;;;;;;;;5047259;28;45280;-68
2022/05/15 09:34:03;;;;;;;;;4.00;4.00;;;;;;;;5055107;28;45296;-68
2022/05/15 09:36:34;;;;;;;;;6.00;5.20;;;;;;;;5058564;28;45445;-68
2022/05/15 09:39:18;;;;;;;;;1.20;1.00;;;;;;;;5057659;28;45396;-68
2022/05/15 09:44:28;;;;;;;;;1.20;1.20;;;;;;;;5056341;28;45315;-68
2022/05/15 09:47:02;;;;;;;;;2.00;2.00;;;;;;;;5056463;28;47108;-68
2022/05/15 09:49:30;;;;;;;;;2.60;1.80;;;;;;;;5048626;28;45286;-68
2022/05/15 09:51:58;;;;;;;;;2.20;2.20;;;;;;;;5057652;28;45334;-68
2022/05/15 09:54:50;;;;;;;;;1.20;1.20;;;;;;;;5055537;28;45403;-68
2022/05/15 09:57:25;;;;;;;;;3.00;1.00;;;;;;;;5054566;28;46956;-68
2022/05/15 09:59:59;;;;;;;;;1.40;1.40;;;;;;;;5053371;28;46702;-68
2022/05/15 10:02:48;;;;;;;;;3.00;2.00;;;;;;;;5052267;28;45394;-68
2022/05/15 10:05:22;;;;;;;;;2.40;2.40;;;;;;;;5047176;28;45379;-68
2022/05/15 10:07:50;;;;;;;;;4.00;1.80;;;;;;;;5051984;28;45375;-68
2022/05/15 10:10:18;;;;;;;;;2.20;2.00;;;;;;;;5051652;28;45253;-68
2022/05/15 10:12:44;;;;;;;;;4.20;1.40;;;;;;;;5052628;28;45384;-68
2022/05/15 10:15:11;;;;;;;;;4.80;1.80;;;;;;;;5059226;28;45407;-68
2022/05/15 10:17:42;;;;;;;;;1.20;1.20;;;;;;;;5052410;28;45439;-68
2022/05/15 10:20:14;;;;;;;;;2.20;2.20;;;;;;;;5059204;28;45288;-68
2022/05/15 10:22:49;;;;;;;;;4.80;1.60;;;;;;;;5052969;28;45356;-72
2022/05/15 10:25:21;;;;;;;;;2.80;2.80;;;;;;;;5059455;28;45311;-72
2022/05/15 10:27:54;;;;;;;;;2.00;0.20;;;;;;;;5052728;28;46585;-72
2022/05/15 10:30:23;;;;;;;;;1.40;1.40;;;;;;;;5049233;28;46334;-71
2022/05/15 10:32:51;;;;;;;;;2.00;1.00;;;;;;;;5055057;28;45431;-72
2022/05/15 10:35:17;;;;;;;;;0.80;0.80;;;;;;;;5057663;28;45305;-71
2022/05/15 10:37:45;;;;;;;;;1.60;1.60;;;;;;;;5056081;28;45352;-71
2022/05/15 10:40:16;;;;;;;;;7.20;5.80;;;;;;;;5058070;28;45337;-70
2022/05/15 10:42:47;;;;;;;;;2.80;2.80;;;;;;;;5054436;28;45328;-71
2022/05/15 10:45:21;;;;;;;;;3.00;3.00;;;;;;;;5052963;28;45470;-71
2022/05/15 10:48:05;;;;;;;;;3.40;3.00;;;;;;;;5053792;28;45375;-70
2022/05/15 10:50:45;;;;;;;;;4.80;1.00;;;;;;;;5056419;28;45397;-70
2022/05/15 10:59:21;;;;;;;;;4.40;4.40;;;;;;;;5046036;28;45392;-70
2022/05/15 11:01:57;;;;;;;;;5.40;4.00;;;;;;;;5053778;28;46620;-70
2022/05/15 11:04:34;;;;;;;;;3.20;2.40;;;;;;;;5054781;28;45243;-70
2022/05/15 11:07:00;;;;;;;;;4.80;3.60;;;;;;;;5056803;28;45372;-72
2022/05/15 11:09:45;;;;;;;;;12.00;12.00;;;;;;;;5046947;28;47374;-70
2022/05/15 11:12:13;;;;;;;;;6.60;5.00;;;;;;;;5043147;28;46332;-70
2022/05/15 11:14:39;;;;;;;;;16.00;16.00;;;;;;;;5055910;28;45425;-69
2022/05/15 11:17:09;;;;;;;;;4.75;3.75;;;;;;;;5054932;28;45323;-70
2022/05/15 11:19:36;;;;;;;;;4.20;3.00;;;;;;;;5058566;28;47056;-71
2022/05/15 11:22:09;;;;;;;;;1.00;1.00;;;;;;;;5057724;28;47105;-70
2022/05/15 11:24:49;;;;;;;;;2.20;2.20;;;;;;;;5053341;28;45366;-71
2022/05/15 11:27:29;;;;;;;;;3.80;1.20;;;;;;;;5055916;28;45353;-69
2022/05/15 11:29:55;;;;;;;;;1.00;1.00;;;;;;;;5052761;28;45449;-70
2022/05/15 11:32:32;;;;;;;;;3.20;2.20;;;;;;;;5056933;28;46141;-70
2022/05/15 11:35:02;;;;;;;;;2.00;2.00;;;;;;;;5051198;28;45442;-70
2022/05/15 11:37:37;;;;;;;;;2.00;2.00;;;;;;;;5057830;28;45333;-70
2022/05/15 11:40:03;;;;;;;;;3.00;1.80;;;;;;;;5051526;28;47689;-69
2022/05/15 11:42:28;;;;;;;;;3.75;2.50;;;;;;;;5059481;28;46353;-70
2022/05/15 11:44:53;;;;;;;;;1.00;1.00;;;;;;;;5052901;28;45601;-70
2022/05/15 11:47:23;;;;;;;;;1.00;1.00;;;;;;;;5060033;28;45360;-70
2022/05/15 11:50:03;;;;;;;;;2.40;2.40;;;;;;;;5054203;28;45351;-71
2022/05/15 11:52:44;;;;;;;;;2.20;1.20;;;;;;;;5058035;28;48208;-71
2022/05/15 11:55:42;;;;;;;;;1.00;1.00;;;;;;;;5073789;28;45331;-71
2022/05/15 11:58:09;;;;;;;;;4.40;3.20;;;;;;;;5023758;28;45385;-70
2022/05/15 12:00:39;;;;;;;;;3.20;3.20;;;;;;;;5060566;28;45347;-70
2022/05/15 12:03:24;;;;;;;;;1.80;1.80;;;;;;;;5085154;27;45537;-72
2022/05/15 12:06:08;;;;;;;;;1.60;1.60;;;;;;;;5061111;28;45326;-72
2022/05/15 12:08:35;;;;;;;;;2.80;1.20;;;;;;;;5056911;28;45453;-71
2022/05/15 12:11:12;;;;;;;;;3.00;1.60;;;;;;;;5059604;28;45272;-71
2022/05/15 12:13:40;;;;;;;;;20.20;16.80;;;;;;;;5069625;28;48227;-72
2022/05/15 12:16:16;;;;;;;;;3.20;3.20;;;;;;;;5059506;28;45316;-72
2022/05/15 12:18:43;;;;;;;;;9.60;9.60;;;;;;;;5057702;28;45377;-70
2022/05/15 12:21:09;;;;;;;;;6.60;4.80;;;;;;;;5058286;28;45638;-71
2022/05/15 12:23:35;;;;;;;;;12.40;11.40;;;;;;;;5053292;28;46079;-72
2022/05/15 12:26:01;;;;;;;;;11.00;10.20;;;;;;;;5060106;28;45297;-72
2022/05/15 12:28:50;;;;;;;;;3.00;3.00;;;;;;;;5058225;28;45672;-70
2022/05/15 12:31:18;;;;;;;;;3.40;3.00;;;;;;;;5058549;28;45430;-71
2022/05/15 12:33:44;;;;;;;;;3.00;1.80;;;;;;;;5055748;28;45667;-71
2022/05/15 12:36:20;;;;;;;;;1.60;1.60;;;;;;;;5060416;28;45493;-71
2022/05/15 12:38:47;;;;;;;;;2.00;2.00;;;;;;;;5058310;28;45276;-70
2022/05/15 12:41:32;;;;;;;;;2.80;2.80;;;;;;;;5052760;28;45363;-70
2022/05/15 12:44:00;;;;;;;;;3.00;1.00;;;;;;;;5052536;28;45369;-71
2022/05/15 12:46:30;;;;;;;;;4.40;4.40;;;;;;;;5060538;28;45441;-71
2022/05/15 12:48:56;;;;;;;;;4.20;3.00;;;;;;;;5054770;28;45320;-70
2022/05/15 12:51:40;;;;;;;;;1.50;1.50;;;;;;;;5059889;28;45392;-71
2022/05/15 12:54:22;;;;;;;;;4.20;2.40;;;;;;;;5048507;28;48811;-71
2022/05/15 12:56:56;;;;;;;;;5.80;5.60;;;;;;;;5053893;28;45375;-70
2022/05/15 12:59:24;;;;;;;;;3.60;2.00;;;;;;;;5057774;28;45395;-70
2022/05/15 13:01:49;;;;;;;;;3.00;3.00;;;;;;;;5056593;28;46134;-70
2022/05/15 13:04:16;;;;;;;;;2.75;1.25;;;;;;;;5055078;28;45768;-70
2022/05/15 13:06:48;;;;;;;;;2.60;2.00;;;;;;;;5057731;28;45170;-70
2022/05/15 13:09:19;;;;;;;;;3.00;1.00;;;;;;;;5058442;28;45710;-70
2022/05/15 13:11:47;;;;;;;;;1.60;1.60;;;;;;;;5058246;28;45372;-71
2022/05/15 13:14:33;;;;;;;;;1.00;1.00;;;;;;;;5050372;28;45430;-71
2022/05/15 13:16:58;;;;;;;;;0.60;0.60;;;;;;;;5045063;28;45541;-71
2022/05/15 13:19:27;;;;;;;;;3.50;3.50;;;;;;;;5052806;28;45414;-71
2022/05/15 13:21:53;;;;;;;;;2.60;2.20;;;;;;;;5085867;27;47121;-70
2022/05/15 13:24:19;;;;;;;;;1.00;1.00;;;;;;;;5055083;28;46089;-70
2022/05/15 13:26:46;;;;;;;;;2.00;1.80;;;;;;;;5058245;28;46009;-71
2022/05/15 13:29:20;;;;;;;;;1.00;1.00;;;;;;;;5053177;28;45394;-71
2022/05/15 13:31:47;;;;;;;;;2.00;1.00;;;;;;;;5057961;28;45357;-72
2022/05/15 13:34:14;;;;;;;;;2.40;2.40;;;;;;;;5055056;28;45310;-70
2022/05/15 13:36:57;;;;;;;;;1.80;1.80;;;;;;;;5058466;28;45260;-71
2022/05/15 13:45:07;;;;;;;;;1.20;0.40;;;;;;;;5050493;28;45753;-70
2022/05/15 13:47:32;;;;;;;;;2.20;2.20;;;;;;;;5056887;28;45676;-71
2022/05/15 13:49:57;;;;;;;;;4.50;3.75;;;;;;;;5052979;28;45232;-71
2022/05/15 13:52:37;;;;;;;;;11.25;9.75;;;;;;;;5056346;28;45240;-71
2022/05/15 13:55:07;;;;;;;;;6.00;2.20;;;;;;;;5054419;28;45455;-71
2022/05/15 13:57:33;;;;;;;;;3.40;2.00;;;;;;;;5057466;28;45288;-71
2022/05/15 14:00:00;;;;;;;;;1.80;1.20;;;;;;;;5057206;28;45299;-70
2022/05/15 14:02:27;;;;;;;;;2.20;2.20;;;;;;;;5057717;28;45323;-71
2022/05/15 14:04:59;;;;;;;;;2.20;1.00;;;;;;;;5058242;28;46364;-70
2022/05/15 14:07:24;;;;;;;;;4.00;1.60;;;;;;;;5057251;28;45686;-71
2022/05/15 14:09:51;;;;;;;;;3.25;2.00;;;;;;;;5057538;28;45196;-71
2022/05/15 14:12:16;;;;;;;;;1.00;1.00;;;;;;;;5057342;28;45637;-71
2022/05/15 14:14:42;;;;;;;;;3.75;1.00;;;;;;;;5056849;28;46128;-71
2022/05/15 14:17:08;;;;;;;;;4.00;2.00;;;;;;;;5057387;28;45502;-71
2022/05/15 14:19:45;;;;;;;;;3.20;2.00;;;;;;;;5048637;28;45490;-72
2022/05/15 14:22:10;;;;;;;;;2.00;2.00;;;;;;;;5057320;28;45442;-72
2022/05/15 14:24:36;;;;;;;;;2.00;2.00;;;;;;;;5058367;28;45453;-72
2022/05/15 14:27:01;;;;;;;;;3.75;3.75;;;;;;;;5054445;28;45292;-72
2022/05/15 14:29:26;;;;;;;;;2.25;2.25;;;;;;;;5056949;28;45216;-72
2022/05/15 14:31:51;;;;;;;;;2.00;2.00;;;;;;;;5057599;28;45187;-71
2022/05/15 14:34:17;;;;;;;;;4.75;2.25;;;;;;;;5056312;28;48385;-72
2022/05/15 14:36:43;;;;;;;;;4.00;3.00;;;;;;;;5057209;28;45283;-72
2022/05/15 14:39:09;;;;;;;;;5.20;3.20;;;;;;;;5056284;28;45275;-71
2022/05/15 14:41:34;;;;;;;;;2.00;2.00;;;;;;;;5057018;28;45336;-71
2022/05/15 14:44:00;;;;;;;;;2.00;2.00;;;;;;;;5048818;28;46362;-71
2022/05/15 14:46:26;;;;;;;;;2.25;2.25;;;;;;;;5058601;28;45398;-70
2022/05/15 14:48:52;;;;;;;;;4.40;3.20;;;;;;;;5049158;28;45440;-71
2022/05/15 14:51:18;;;;;;;;;3.00;2.20;;;;;;;;5059047;28;45352;-71
2022/05/15 14:53:44;;;;;;;;;2.80;2.80;;;;;;;;5049150;28;45529;-70
2022/05/15 14:56:09;;;;;;;;;1.75;1.75;;;;;;;;5057351;28;45878;-71
2022/05/15 14:58:38;;;;;;;;;2.75;2.00;;;;;;;;5054952;28;45657;-71
2022/05/15 15:01:03;;;;;;;;;2.80;2.80;;;;;;;;5046968;28;45633;-71
2022/05/15 15:03:29;;;;;;;;;2.00;1.75;;;;;;;;5049520;28;45405;-71
2022/05/15 15:05:55;;;;;;;;;3.00;3.00;;;;;;;;5056730;28;45378;-72
2022/05/15 15:08:24;;;;;;;;;2.20;2.20;;;;;;;;5048436;28;45780;-70
2022/05/15 15:10:50;;;;;;;;;2.20;2.20;;;;;;;;5057896;28;45553;-72
2022/05/15 15:13:16;;;;;;;;;1.40;1.40;;;;;;;;5050483;28;47638;-70
2022/05/15 15:15:43;;;;;;;;;2.40;1.60;;;;;;;;5042126;28;45241;-72